Time;durP1;ratioP1;P1;durP2;ratioP2;P2;SDS_P1;SDS_P2;PMS_P1;PMS_P2;Temp;Humidity;BMP_temperature;BMP_pressure;BME280_temperature;BME280_humidity;BME280_pressure;Samples;Min_cycle;Max_cycle;Signal;HPM_P1;HPM_P2
2022/01/24 00:01:18;;;;;;;11.45;2.75;;;;;;;6.52;95.63;102606.13;5053287;28;20029;-79
2022/01/24 00:03:43;;;;;;;28.00;4.10;;;;;;;6.51;95.89;102603.63;5072905;28;20036;-79
2022/01/24 00:06:12;;;;;;;19.98;3.90;;;;;;;6.51;95.86;102604.44;5071021;28;20028;-79
2022/01/24 00:08:38;;;;;;;12.98;3.08;;;;;;;6.50;95.50;102597.38;5072934;28;20052;-79
2022/01/24 00:11:09;;;;;;;19.50;4.85;;;;;;;6.52;95.33;102589.88;5069222;28;20024;-79
2022/01/24 00:16:28;;;;;;;10.18;2.33;;;;;;;6.55;95.21;102600.31;5054334;28;20318;-80
2022/01/24 00:26:49;;;;;;;16.80;2.22;;;;;;;6.57;94.84;102597.38;5055072;28;20106;-79
2022/01/24 00:29:16;;;;;;;13.25;2.45;;;;;;;6.57;94.96;102598.22;5064271;28;20032;-79
2022/01/24 00:31:41;;;;;;;15.75;2.67;;;;;;;6.57;94.99;102591.97;5036024;28;20085;-79
2022/01/24 00:34:07;;;;;;;18.30;3.38;;;;;;;6.56;95.08;102607.38;5060111;28;20028;-80
2022/01/24 00:36:32;;;;;;;11.63;3.83;;;;;;;6.57;94.89;102603.63;5068275;28;20563;-78
2022/01/24 00:38:58;;;;;;;18.40;3.83;;;;;;;6.56;94.56;102607.38;5072748;28;20029;-80
2022/01/24 00:41:23;;;;;;;13.05;2.92;;;;;;;6.55;94.40;102605.72;5050943;28;20391;-80
2022/01/24 00:46:33;;;;;;;24.90;3.67;;;;;;;6.53;94.95;102598.84;5070543;28;20074;-80
2022/01/24 00:49:21;;;;;;;11.88;2.70;;;;;;;6.52;94.73;102600.72;5069008;28;20809;-80
2022/01/24 00:57:02;;;;;;;14.10;3.03;;;;;;;6.50;94.72;102583.81;5040508;28;20048;-79
2022/01/24 00:59:28;;;;;;;15.80;3.33;;;;;;;6.50;94.71;102586.53;5073779;28;20030;-80
2022/01/24 01:01:53;;;;;;;11.20;3.63;;;;;;;6.51;94.22;102576.50;5040460;28;20117;-80
2022/01/24 01:04:22;;;;;;;10.80;2.78;;;;;;;6.51;94.28;102582.75;5073253;28;20020;-80
2022/01/24 01:06:49;;;;;;;16.17;2.88;;;;;;;6.50;94.59;102583.81;5038393;28;21578;-78
2022/01/24 01:20:11;;;;;;;14.18;3.25;;;;;;;6.44;94.38;102596.28;5049808;28;20495;-80
2022/01/24 01:22:36;;;;;;;15.55;2.13;;;;;;;6.43;94.49;102596.47;5072632;28;20044;-81
2022/01/24 01:25:02;;;;;;;14.77;2.80;;;;;;;6.42;94.29;102597.53;5065260;28;20439;-80
2022/01/24 01:27:40;;;;;;;12.10;3.08;;;;;;;6.40;94.53;102586.88;5072247;28;20033;-80
2022/01/24 01:30:16;;;;;;;11.57;2.30;;;;;;;6.40;94.65;102583.34;5040376;28;20021;-80
2022/01/24 01:40:43;;;;;;;22.92;3.38;;;;;;;6.37;94.54;102583.75;5072133;28;20385;-80
2022/01/24 01:54:25;;;;;;;10.85;3.03;;;;;;;6.20;95.29;102559.72;5054157;28;20098;-80
2022/01/24 01:56:50;;;;;;;10.40;2.70;;;;;;;6.17;95.38;102565.53;5025437;28;20032;-80
2022/01/24 01:59:15;;;;;;;7.45;1.90;;;;;;;6.16;95.56;102557.59;5072518;28;20028;-80
2022/01/24 02:01:41;;;;;;;15.35;3.22;;;;;;;6.16;95.33;102558.44;5052725;28;20047;-80
2022/01/24 02:04:06;;;;;;;14.38;2.83;;;;;;;6.16;95.66;102547.59;5070376;28;20028;-79
2022/01/24 02:06:32;;;;;;;9.65;2.45;;;;;;;6.16;95.45;102550.31;5072093;28;20458;-80
2022/01/24 02:09:02;;;;;;;17.17;2.58;;;;;;;6.16;95.41;102553.00;5056227;28;20358;-79
2022/01/24 02:11:27;;;;;;;11.88;3.10;;;;;;;6.17;95.18;102556.59;5055593;28;20099;-80
2022/01/24 02:13:53;;;;;;;9.80;2.55;;;;;;;6.17;95.01;102557.41;5076630;28;20074;-81
2022/01/24 02:16:31;;;;;;;14.23;2.50;;;;;;;6.16;94.91;102569.25;5074852;28;20020;-80
2022/01/24 02:19:14;;;;;;;9.65;2.90;;;;;;;6.15;94.72;102551.34;5062382;28;20056;-81
2022/01/24 02:21:47;;;;;;;14.55;2.67;;;;;;;6.14;94.81;102560.53;5057836;28;20048;-80
2022/01/24 02:24:14;;;;;;;13.25;2.97;;;;;;;6.11;94.82;102566.34;5074103;28;20021;-80
2022/01/24 02:26:40;;;;;;;15.15;3.00;;;;;;;6.07;94.65;102562.34;5056468;28;20033;-80
2022/01/24 02:29:17;;;;;;;17.23;4.00;;;;;;;6.06;94.92;102559.84;5074534;28;20373;-80
2022/01/24 02:31:45;;;;;;;21.98;3.70;;;;;;;6.05;94.96;102566.28;5078715;28;20056;-80
2022/01/24 02:34:33;;;;;;;11.68;2.60;;;;;;;6.04;94.96;102560.03;5096529;28;20020;-80
2022/01/24 02:37:03;;;;;;;9.63;2.97;;;;;;;6.04;94.98;102559.22;5089130;28;20035;-80
2022/01/24 02:50:21;;;;;;;20.25;3.83;;;;;;;5.97;94.84;102549.19;5095285;28;20031;-80
2022/01/24 02:52:46;;;;;;;13.68;3.58;;;;;;;5.96;95.05;102562.91;5076474;28;20157;-80
2022/01/24 02:55:12;;;;;;;23.85;4.05;;;;;;;5.95;95.02;102566.66;5095826;28;20036;-80
2022/01/24 02:57:37;;;;;;;13.93;3.70;;;;;;;5.94;95.16;102560.38;5095181;28;20023;-80
2022/01/24 03:00:03;;;;;;;17.25;3.42;;;;;;;5.94;95.21;102560.38;5092867;28;20030;-80
2022/01/24 03:02:28;;;;;;;16.25;3.33;;;;;;;5.92;95.42;102551.63;5077039;28;20028;-80
2022/01/24 03:04:56;;;;;;;21.33;3.63;;;;;;;5.92;95.33;102550.75;5075680;28;20097;-80
2022/01/24 03:07:21;;;;;;;14.27;3.78;;;;;;;5.93;95.53;102547.03;5095322;28;20046;-80
2022/01/24 03:09:49;;;;;;;17.20;2.83;;;;;;;5.93;95.36;102541.63;5076410;28;20476;-81
2022/01/24 03:12:24;;;;;;;17.38;3.03;;;;;;;5.93;95.59;102547.91;5073539;28;20024;-80
2022/01/24 03:14:50;;;;;;;16.33;2.97;;;;;;;5.93;95.59;102542.50;5092083;28;20381;-81
2022/01/24 03:17:15;;;;;;;14.80;3.17;;;;;;;5.91;95.39;102538.28;5089598;28;20020;-80
2022/01/24 03:19:40;;;;;;;21.23;3.65;;;;;;;5.90;95.38;102534.75;5092011;28;20081;-80
2022/01/24 03:22:08;;;;;;;20.58;3.60;;;;;;;5.91;95.60;102549.09;5094785;28;20054;-80
2022/01/24 03:24:35;;;;;;;20.48;3.30;;;;;;;5.90;95.45;102547.44;5092479;28;20028;-80
2022/01/24 03:27:01;;;;;;;18.05;2.80;;;;;;;5.88;95.67;102544.91;5093597;28;20066;-80
2022/01/24 03:29:26;;;;;;;14.18;3.35;;;;;;;5.88;95.48;102546.81;5089274;28;20063;-80
2022/01/24 03:31:51;;;;;;;21.60;3.85;;;;;;;5.88;95.64;102541.38;5090632;28;20042;-80
2022/01/24 03:34:17;;;;;;;26.92;4.25;;;;;;;5.87;95.64;102537.00;5094777;28;20028;-80
2022/01/24 03:36:43;;;;;;;17.70;3.00;;;;;;;5.86;95.84;102535.31;5075438;28;20028;-81
2022/01/24 03:39:08;;;;;;;19.15;4.18;;;;;;;5.85;95.75;102547.19;5094333;28;20364;-80
2022/01/24 03:41:33;;;;;;;18.63;3.78;;;;;;;5.82;96.02;102539.47;5094384;28;20032;-81
2022/01/24 03:44:03;;;;;;;13.57;2.88;;;;;;;5.78;95.94;102539.88;5077142;28;20077;-81
2022/01/24 03:46:46;;;;;;;14.25;3.60;;;;;;;5.77;96.21;102540.06;5078267;28;20028;-81
2022/01/24 03:49:44;;;;;;;11.38;2.55;;;;;;;5.74;96.35;102538.59;5054996;28;20024;-81
2022/01/24 03:51:56;;;;;;;11.52;3.22;;;;;;;5.72;96.06;102550.66;5093921;28;20040;-80
2022/01/24 03:54:22;;;;;;;18.50;2.95;;;;;;;5.71;96.38;102547.13;5077399;28;20463;-80
2022/01/24 03:56:47;;;;;;;13.88;2.80;;;;;;;5.67;96.46;102543.13;5075598;28;20023;-80
2022/01/24 03:59:12;;;;;;;18.95;3.97;;;;;;;5.67;96.56;102532.28;5069266;28;20035;-79
2022/01/24 04:01:38;;;;;;;18.55;3.33;;;;;;;5.67;96.59;102537.69;5076123;28;20085;-79
2022/01/24 04:04:03;;;;;;;24.63;3.45;;;;;;;5.66;96.61;102535.22;5075673;28;20388;-79
2022/01/24 04:06:29;;;;;;;15.27;3.13;;;;;;;5.65;96.56;102522.72;5095557;28;20012;-79
2022/01/24 04:08:54;;;;;;;10.60;2.33;;;;;;;5.64;96.71;102531.84;5093476;28;20016;-79
2022/01/24 04:11:19;;;;;;;19.75;2.40;;;;;;;5.63;96.51;102524.78;5059674;28;20530;-79
2022/01/24 04:13:45;;;;;;;14.70;4.47;;;;;;;5.62;96.70;102532.06;5092921;28;20442;-79
2022/01/24 04:21:30;;;;;;;12.85;2.47;;;;;;;5.61;97.27;102526.84;5077157;28;20040;-78
2022/01/24 04:24:03;;;;;;;15.18;2.80;;;;;;;5.61;97.40;102530.38;5077916;28;20027;-79
2022/01/24 04:26:29;;;;;;;20.40;3.03;;;;;;;5.60;97.32;102542.25;5055347;28;20124;-79
2022/01/24 04:28:55;;;;;;;9.73;2.35;;;;;;;5.62;97.38;102528.50;5075486;28;20078;-80
2022/01/24 04:31:20;;;;;;;14.73;2.72;;;;;;;5.62;97.21;102536.63;5092975;28;20063;-80
2022/01/24 04:33:46;;;;;;;11.55;2.20;;;;;;;5.61;97.48;102530.38;5072692;28;20042;-79
2022/01/24 04:36:11;;;;;;;22.85;4.55;;;;;;;5.59;97.17;102537.84;5069726;28;20519;-79
2022/01/24 04:38:36;;;;;;;12.95;2.92;;;;;;;5.61;97.35;102533.09;5073955;28;20077;-79
2022/01/24 04:41:06;;;;;;;12.18;2.60;;;;;;;5.61;97.27;102533.09;5075541;28;20020;-79
2022/01/24 04:44:30;;;;;;;13.32;2.08;;;;;;;5.61;97.46;102505.19;5093248;28;20027;-79
2022/01/24 04:51:30;;;;;;;15.35;3.17;;;;;;;5.61;97.51;102495.22;5094166;28;20100;-80
2022/01/24 04:56:35;;;;;;;15.70;2.90;;;;;;;5.53;97.78;102492.66;5074229;28;20024;-80
2022/01/24 04:59:00;;;;;;;23.55;3.22;;;;;;;5.48;97.81;102511.34;5093548;28;20039;-79
2022/01/24 05:01:26;;;;;;;10.77;4.18;;;;;;;5.41;98.14;102503.19;5093012;28;20020;-79
2022/01/24 05:03:52;;;;;;;18.85;3.17;;;;;;;5.36;98.31;102500.25;5093778;28;20028;-79
2022/01/24 05:06:17;;;;;;;17.50;3.38;;;;;;;5.32;98.58;102502.50;5091081;28;20020;-79
2022/01/24 05:08:42;;;;;;;10.85;2.17;;;;;;;5.30;98.88;102493.75;5093187;28;20035;-79
2022/01/24 05:11:12;;;;;;;9.93;2.08;;;;;;;5.29;98.95;102502.06;5092247;28;20024;-79
2022/01/24 05:24:16;;;;;;;12.30;2.13;;;;;;;5.25;99.32;102506.19;5091179;28;20048;-79
2022/01/24 05:26:42;;;;;;;11.02;1.83;;;;;;;5.26;99.59;102513.25;5090977;28;20028;-79
2022/01/24 05:29:08;;;;;;;8.95;2.45;;;;;;;5.27;99.53;102499.56;5085710;28;20027;-80
2022/01/24 05:31:33;;;;;;;11.43;2.25;;;;;;;5.30;99.51;102496.47;5090866;28;20028;-80
2022/01/24 05:33:58;;;;;;;8.75;1.73;;;;;;;5.31;99.58;102491.88;5090978;28;20362;-80
2022/01/24 05:36:24;;;;;;;11.80;1.95;;;;;;;5.32;99.48;102502.50;5092914;28;20039;-80
2022/01/24 05:38:49;;;;;;;10.85;2.88;;;;;;;5.33;99.43;102504.19;5092052;28;20024;-80
2022/01/24 05:41:15;;;;;;;11.70;1.80;;;;;;;5.36;99.46;102491.31;5083279;28;20069;-80
2022/01/24 05:43:41;;;;;;;11.88;2.53;;;;;;;5.35;99.55;102495.88;5085551;28;20035;-80
2022/01/24 05:46:06;;;;;;;9.80;2.00;;;;;;;5.37;99.70;102492.97;5092426;28;20046;-80
2022/01/24 05:48:31;;;;;;;15.20;2.78;;;;;;;5.38;99.52;102509.00;5092520;28;20047;-80
2022/01/24 05:50:57;;;;;;;16.27;3.60;;;;;;;5.38;99.69;102510.88;5092434;28;20030;-80
2022/01/24 05:53:22;;;;;;;12.82;1.90;;;;;;;5.38;99.28;102502.75;5090765;28;20362;-80
2022/01/24 05:55:48;;;;;;;12.10;1.70;;;;;;;5.38;99.69;102517.13;5090989;28;20027;-80
2022/01/24 05:58:13;;;;;;;18.85;2.97;;;;;;;5.39;99.57;102517.94;5089963;28;20024;-80
2022/01/24 06:00:38;;;;;;;14.10;2.40;;;;;;;5.38;99.73;102503.59;5072659;28;20054;-80
2022/01/24 06:03:04;;;;;;;17.02;2.40;;;;;;;5.37;99.74;102501.06;5092166;28;20058;-80
2022/01/24 06:05:29;;;;;;;13.00;2.50;;;;;;;5.38;99.59;102505.47;5092954;28;20038;-80
2022/01/24 06:07:55;;;;;;;11.30;3.00;;;;;;;5.38;99.92;102505.47;5056965;28;20035;-80
2022/01/24 06:10:20;;;;;;;12.25;2.00;;;;;;;5.38;99.80;102514.41;5057053;28;20465;-80
2022/01/24 06:12:46;;;;;;;17.70;2.30;;;;;;;5.39;99.96;102520.66;5090975;28;20057;-80
2022/01/24 06:15:11;;;;;;;14.50;3.40;;;;;;;5.38;99.91;102513.59;5091546;28;20473;-80
2022/01/24 06:17:37;;;;;;;19.63;3.50;;;;;;;5.36;99.94;102505.66;5073112;28;20035;-81
2022/01/24 06:20:03;;;;;;;16.65;2.50;;;;;;;5.36;99.92;102507.53;5073645;28;20024;-81
2022/01/24 06:22:29;;;;;;;13.77;2.92;;;;;;;5.36;100.00;102507.53;5074309;28;20042;-81
2022/01/24 06:24:54;;;;;;;14.02;2.70;;;;;;;5.33;99.92;102504.19;5083834;28;20024;-80
2022/01/24 06:27:21;;;;;;;16.27;3.25;;;;;;;5.33;100.00;102504.19;5090656;28;20070;-80
2022/01/24 06:29:46;;;;;;;12.38;2.33;;;;;;;5.34;100.00;102511.25;5073440;28;20236;-82
2022/01/24 06:32:12;;;;;;;19.52;4.53;;;;;;;5.34;100.00;102513.94;5089958;28;20035;-80
2022/01/24 06:34:37;;;;;;;12.48;2.45;;;;;;;5.34;100.00;102505.84;5073076;28;20027;-80
2022/01/24 06:37:04;;;;;;;13.07;2.83;;;;;;;5.34;100.00;102502.31;5073618;28;20525;-80
2022/01/24 06:39:29;;;;;;;12.13;2.03;;;;;;;5.32;100.00;102513.34;5070078;28;20032;-80
2022/01/24 06:42:13;;;;;;;16.60;2.42;;;;;;;5.31;100.00;102508.94;5090549;28;20031;-80
2022/01/24 06:44:39;;;;;;;10.07;2.33;;;;;;;5.32;100.00;102507.09;5072616;28;20020;-79
2022/01/24 06:47:04;;;;;;;11.20;2.38;;;;;;;5.33;100.00;102509.59;5068568;28;20086;-80
2022/01/24 06:49:31;;;;;;;14.85;2.55;;;;;;;5.34;100.00;102505.84;5067771;28;20027;-80
2022/01/24 06:51:56;;;;;;;15.55;2.70;;;;;;;5.36;100.00;102515.66;5072175;28;20024;-80
2022/01/24 06:54:21;;;;;;;10.30;2.42;;;;;;;5.37;100.00;102507.31;5074002;28;20028;-80
2022/01/24 06:56:47;;;;;;;13.65;3.05;;;;;;;5.40;100.00;102514.19;5072607;28;20076;-80
2022/01/24 06:59:12;;;;;;;12.48;2.78;;;;;;;5.42;100.00;102512.16;5076563;28;20024;-80
2022/01/24 07:01:37;;;;;;;18.08;2.60;;;;;;;5.44;100.00;102508.22;5075169;28;20033;-81
2022/01/24 07:04:04;;;;;;;13.25;2.85;;;;;;;5.46;100.00;102510.72;5089957;28;20425;-80
2022/01/24 07:06:29;;;;;;;14.85;2.75;;;;;;;5.49;100.00;102513.03;5095754;28;20128;-80
2022/01/24 07:08:56;;;;;;;11.80;2.53;;;;;;;5.49;100.00;102496.81;5094612;28;20032;-80
2022/01/24 07:11:21;;;;;;;17.20;3.22;;;;;;;5.51;100.00;102497.41;5095821;28;20024;-80
2022/01/24 07:13:50;;;;;;;15.35;2.78;;;;;;;5.52;100.00;102499.13;5094816;28;20455;-79
2022/01/24 07:16:16;;;;;;;13.25;2.97;;;;;;;5.54;100.00;102499.75;5096004;28;20031;-80
2022/01/24 07:19:00;;;;;;;13.55;2.67;;;;;;;5.55;99.81;102512.25;5094942;28;20089;-80
2022/01/24 07:21:26;;;;;;;10.57;2.50;;;;;;;5.57;99.78;102507.47;5093731;28;20020;-80
2022/01/24 07:23:51;;;;;;;8.63;2.65;;;;;;;5.60;99.61;102504.38;5076550;28;20035;-80
2022/01/24 07:26:17;;;;;;;19.35;3.38;;;;;;;5.61;99.76;102516.84;5074363;28;20020;-81
2022/01/24 07:28:44;;;;;;;17.67;4.22;;;;;;;5.63;99.50;102514.78;5075589;28;20028;-79
2022/01/24 07:31:09;;;;;;;19.75;3.10;;;;;;;5.65;99.41;102512.72;5094977;28;20020;-80
2022/01/24 07:33:35;;;;;;;20.65;4.68;;;;;;;5.69;99.26;102508.59;5091884;28;20503;-80
2022/01/24 07:36:00;;;;;;;25.02;4.75;;;;;;;5.71;99.08;102501.09;5092696;28;20032;-81
2022/01/24 07:38:26;;;;;;;15.80;3.90;;;;;;;5.74;99.00;102508.00;5091596;28;20016;-80
2022/01/24 07:40:54;;;;;;;16.75;3.53;;;;;;;5.77;98.53;102505.72;5090893;28;20038;-80
2022/01/24 07:43:19;;;;;;;18.77;4.45;;;;;;;5.79;98.76;102503.66;5073907;28;20058;-80
2022/01/24 07:45:45;;;;;;;15.18;4.07;;;;;;;5.82;98.59;102507.00;5091829;28;20391;-80
2022/01/24 07:48:13;;;;;;;21.08;4.43;;;;;;;5.82;98.12;102507.84;5089674;28;20032;-80
2022/01/24 07:50:40;;;;;;;17.50;3.95;;;;;;;5.84;98.13;102504.91;5075894;28;20178;-80
2022/01/24 07:53:09;;;;;;;20.30;4.60;;;;;;;5.84;98.00;102513.88;5052869;28;20107;-80
2022/01/24 07:55:36;;;;;;;16.55;3.80;;;;;;;5.84;97.52;102511.19;5089012;28;20096;-80
2022/01/24 07:58:01;;;;;;;9.98;2.90;;;;;;;5.85;97.76;102512.00;5067036;28;20036;-80
2022/01/24 08:00:27;;;;;;;20.30;3.75;;;;;;;5.84;97.22;102521.16;5085264;28;20388;-80
2022/01/24 08:02:52;;;;;;;16.55;3.20;;;;;;;5.84;97.04;102521.16;5070409;28;20392;-80
2022/01/24 08:05:18;;;;;;;17.38;6.38;;;;;;;5.84;96.74;102513.03;5070315;28;20036;-80
2022/01/24 08:07:43;;;;;;;11.98;3.20;;;;;;;5.84;96.61;102515.72;5071051;28;20028;-80
2022/01/24 08:10:08;;;;;;;19.30;5.43;;;;;;;5.84;96.90;102510.31;5090932;28;20024;-80
2022/01/24 08:12:35;;;;;;;11.18;2.75;;;;;;;5.85;96.77;102525.53;5075451;28;20028;-80
2022/01/24 08:15:02;;;;;;;16.08;3.70;;;;;;;5.85;96.66;102512.84;5072299;28;20032;-80
2022/01/24 08:17:27;;;;;;;20.40;4.15;;;;;;;5.87;96.54;102515.38;5087666;28;20469;-81
2022/01/24 08:19:53;;;;;;;22.00;3.90;;;;;;;5.87;96.54;102529.72;5074703;28;20042;-80
2022/01/24 08:22:18;;;;;;;15.07;3.63;;;;;;;5.89;96.37;102521.38;5092558;28;20136;-80
2022/01/24 08:24:44;;;;;;;22.55;4.85;;;;;;;5.91;96.19;102527.44;5071464;28;20024;-80
2022/01/24 08:27:10;;;;;;;23.30;4.78;;;;;;;5.93;96.51;102519.97;5089427;28;20430;-80
2022/01/24 08:29:36;;;;;;;21.52;5.05;;;;;;;5.92;96.19;102513.72;5091235;28;20031;-80
2022/01/24 08:32:01;;;;;;;21.27;4.15;;;;;;;5.92;96.16;102519.13;5075532;28;20034;-79
2022/01/24 08:34:26;;;;;;;12.50;4.28;;;;;;;5.92;95.85;102511.03;5085589;28;20024;-79
2022/01/24 08:36:52;;;;;;;18.45;4.35;;;;;;;5.95;95.88;102517.94;5093826;28;20036;-78
2022/01/24 08:39:17;;;;;;;15.45;4.38;;;;;;;5.96;95.40;102515.00;5053458;28;20020;-78
2022/01/24 08:42:19;;;;;;;16.88;4.72;;;;;;;5.97;95.18;102513.13;5093164;28;20487;-78
2022/01/24 08:47:18;;;;;;;18.92;5.10;;;;;;;5.98;94.76;102495.88;5090913;28;20038;-78
2022/01/24 08:49:43;;;;;;;22.98;5.03;;;;;;;5.92;94.70;102502.91;5072914;28;20020;-78
2022/01/24 08:52:09;;;;;;;16.30;3.75;;;;;;;5.86;94.82;102500.97;5073952;28;20081;-78
2022/01/24 08:54:34;;;;;;;25.63;6.28;;;;;;;5.82;94.85;102491.59;5091306;28;20023;-78
2022/01/24 08:57:00;;;;;;;20.33;5.38;;;;;;;5.79;94.97;102487.41;5092440;28;20024;-77
2022/01/24 08:59:26;;;;;;;21.13;5.00;;;;;;;5.78;95.08;102485.75;5089833;28;20027;-78
2022/01/24 09:01:51;;;;;;;20.95;5.82;;;;;;;5.77;95.18;102481.34;5085859;28;20034;-78
2022/01/24 09:04:17;;;;;;;24.00;5.40;;;;;;;5.74;95.18;102489.88;5088866;28;20500;-78
2022/01/24 09:06:42;;;;;;;12.75;4.45;;;;;;;5.73;95.40;102476.56;5074007;28;20035;-77
2022/01/24 09:09:07;;;;;;;12.38;4.28;;;;;;;5.72;95.20;102483.00;5068442;28;20427;-77
2022/01/24 09:11:34;;;;;;;22.75;5.13;;;;;;;5.71;95.56;102474.03;5074499;28;20041;-77
2022/01/24 09:14:00;;;;;;;22.33;5.90;;;;;;;5.72;95.41;102480.28;5064153;28;20177;-77
2022/01/24 09:16:25;;;;;;;26.75;5.53;;;;;;;5.72;95.76;102483.00;5041338;28;20179;-77
2022/01/24 09:18:51;;;;;;;18.65;5.45;;;;;;;5.71;95.88;102490.28;5068647;28;20032;-76
2022/01/24 09:21:17;;;;;;;30.65;8.00;;;;;;;5.71;95.91;102478.63;5080109;28;20043;-78
2022/01/24 09:23:42;;;;;;;19.40;5.82;;;;;;;5.70;95.97;102493.16;5060053;28;20127;-76
2022/01/24 09:26:07;;;;;;;30.63;6.10;;;;;;;5.70;95.97;102488.63;5033655;28;20020;-76
2022/01/24 09:28:33;;;;;;;22.58;6.07;;;;;;;5.70;96.04;102501.28;5051971;28;20040;-76
2022/01/24 09:30:58;;;;;;;19.40;6.03;;;;;;;5.69;96.24;102486.94;5026355;28;20024;-76
2022/01/24 09:33:25;;;;;;;24.23;5.75;;;;;;;5.69;96.07;102491.50;5044815;28;20492;-76
2022/01/24 09:35:51;;;;;;;19.35;5.05;;;;;;;5.68;96.29;102482.56;5052751;28;20036;-77
2022/01/24 09:38:17;;;;;;;19.40;5.82;;;;;;;5.69;96.48;102475.28;5053529;28;20032;-77
2022/01/24 09:40:42;;;;;;;16.35;5.50;;;;;;;5.69;96.25;102476.09;5038056;28;20172;-76
2022/01/24 09:43:08;;;;;;;19.30;5.18;;;;;;;5.68;96.29;102474.44;5052457;28;20043;-76
2022/01/24 09:45:33;;;;;;;11.32;4.32;;;;;;;5.66;96.38;102481.91;5041225;28;20033;-77
2022/01/24 09:47:58;;;;;;;15.25;4.95;;;;;;;5.65;96.54;102480.25;5027228;28;20375;-77
2022/01/24 09:50:24;;;;;;;21.40;6.22;;;;;;;5.63;96.58;102487.72;5048003;28;20024;-77
2022/01/24 09:52:49;;;;;;;14.80;4.93;;;;;;;5.63;96.54;102479.63;5055251;28;20024;-77
2022/01/24 09:55:16;;;;;;;13.95;4.90;;;;;;;5.61;96.68;102478.97;5040252;28;20028;-77
2022/01/24 09:57:42;;;;;;;21.05;4.95;;;;;;;5.64;97.02;102492.09;5056782;28;20109;-77
2022/01/24 10:00:10;;;;;;;18.85;5.65;;;;;;;5.64;96.96;102483.16;5064803;28;20024;-79
2022/01/24 10:02:35;;;;;;;18.33;5.95;;;;;;;5.65;97.08;102491.09;5067083;28;20372;-79
2022/01/24 10:05:18;;;;;;;20.63;6.35;;;;;;;5.66;96.93;102476.50;5068165;28;20020;-78
2022/01/24 10:07:52;;;;;;;29.15;6.45;;;;;;;5.68;97.07;102485.28;5072829;28;20132;-77
2022/01/24 10:10:35;;;;;;;23.35;6.35;;;;;;;5.67;96.88;102478.16;5071837;28;20013;-77
2022/01/24 10:19:03;;;;;;;21.63;5.85;;;;;;;5.64;96.99;102465.03;5052933;28;20040;-79
2022/01/24 10:21:29;;;;;;;20.83;6.28;;;;;;;5.60;96.68;102477.31;5052069;28;20063;-79
2022/01/24 10:23:56;;;;;;;22.23;6.57;;;;;;;5.61;97.24;102487.09;5070862;28;20040;-80
2022/01/24 10:26:24;;;;;;;14.55;4.93;;;;;;;5.61;97.01;102476.28;5035611;28;20063;-79
2022/01/24 10:28:50;;;;;;;23.90;5.80;;;;;;;5.59;97.13;102470.22;5040550;28;20036;-79
2022/01/24 10:31:25;;;;;;;15.07;4.45;;;;;;;5.55;97.29;102469.78;5021828;28;20024;-79
2022/01/24 10:34:00;;;;;;;33.13;6.05;;;;;;;5.53;97.14;102473.72;5052536;28;20035;-79
2022/01/24 10:36:41;;;;;;;18.88;6.03;;;;;;;5.50;97.38;102471.41;5051963;28;20039;-79
2022/01/24 10:39:19;;;;;;;18.85;5.60;;;;;;;5.48;97.20;102473.47;5057303;28;20036;-79
2022/01/24 10:44:31;;;;;;;24.90;6.60;;;;;;;5.43;97.68;102465.13;5068846;28;20048;-80
2022/01/24 10:47:11;;;;;;;22.45;5.32;;;;;;;5.44;97.84;102474.91;5044836;28;20028;-80
2022/01/24 10:49:37;;;;;;;22.38;6.85;;;;;;;5.44;97.91;102472.22;5054936;28;20012;-80
2022/01/24 10:52:30;;;;;;;23.42;6.65;;;;;;;5.43;97.87;102470.53;5056161;28;20020;-79
2022/01/24 10:55:15;;;;;;;21.33;8.20;;;;;;;5.46;98.09;102478.28;5065506;28;20068;-81
2022/01/24 10:57:41;;;;;;;29.33;8.45;;;;;;;5.45;98.01;102463.06;5080918;28;20030;-79
2022/01/24 11:00:16;;;;;;;23.10;8.15;;;;;;;5.44;98.17;102483.03;5076810;28;20028;-79
2022/01/24 11:02:43;;;;;;;21.13;6.78;;;;;;;5.45;98.13;102465.75;5081491;28;20358;-79
2022/01/24 11:05:12;;;;;;;26.50;8.07;;;;;;;5.44;98.33;102461.41;5040985;28;20024;-78
2022/01/24 11:07:52;;;;;;;25.08;7.00;;;;;;;5.46;98.36;102467.44;5074887;28;20032;-79
2022/01/24 11:10:17;;;;;;;26.52;7.72;;;;;;;5.46;98.33;102460.16;5020301;28;20031;-79
2022/01/24 11:12:43;;;;;;;19.40;7.13;;;;;;;5.46;98.39;102453.94;5070025;28;20033;-79
2022/01/24 11:15:10;;;;;;;32.20;6.40;;;;;;;5.48;98.36;102446.44;5047476;28;20473;-79
2022/01/24 11:17:35;;;;;;;17.75;6.88;;;;;;;5.47;98.35;102444.75;5038676;28;20025;-79
2022/01/24 11:20:03;;;;;;;26.48;7.00;;;;;;;5.47;98.39;102440.19;5043355;28;20036;-79
2022/01/24 11:22:31;;;;;;;38.85;8.02;;;;;;;5.47;98.81;102444.75;5080003;28;20421;-79
2022/01/24 11:25:03;;;;;;;31.77;8.80;;;;;;;5.47;98.83;102448.31;5059184;28;20115;-79
2022/01/24 11:27:29;;;;;;;32.08;8.30;;;;;;;5.46;98.72;102443.94;5042256;28;20103;-79
2022/01/24 11:29:57;;;;;;;24.52;8.18;;;;;;;5.47;99.02;102439.34;5039139;28;20033;-79
2022/01/24 11:32:26;;;;;;;26.88;8.25;;;;;;;5.48;99.12;102427.50;5044965;28;20044;-78
2022/01/24 11:34:54;;;;;;;24.08;9.07;;;;;;;5.52;98.98;102442.31;5057073;28;20109;-77
2022/01/24 11:37:36;;;;;;;28.10;8.70;;;;;;;5.52;99.31;102445.00;5072465;28;20481;-78
2022/01/24 11:40:08;;;;;;;24.48;7.50;;;;;;;5.52;99.00;102436.88;5036922;28;20036;-78
2022/01/24 11:42:36;;;;;;;20.13;6.90;;;;;;;5.54;99.20;102434.84;5055749;28;20051;-79
2022/01/24 11:45:09;;;;;;;29.35;7.88;;;;;;;5.56;99.13;102432.72;5043945;28;20028;-78
2022/01/24 11:47:35;;;;;;;25.60;7.00;;;;;;;5.59;99.12;102431.50;5034316;28;20048;-76
2022/01/24 11:50:02;;;;;;;30.20;8.05;;;;;;;5.59;99.32;102431.50;5055370;28;20029;-76
2022/01/24 11:52:31;;;;;;;22.75;7.53;;;;;;;5.59;99.30;102432.34;5042301;28;20025;-77
2022/01/24 11:57:37;;;;;;;27.92;8.02;;;;;;;5.62;99.35;102431.97;5060384;28;20028;-77
2022/01/24 12:00:05;;;;;;;20.50;7.22;;;;;;;5.61;99.28;102422.16;5063674;28;20503;-76
2022/01/24 12:02:44;;;;;;;21.45;7.15;;;;;;;5.59;99.31;102417.97;5070643;28;20071;-76
2022/01/24 12:05:10;;;;;;;36.47;10.60;;;;;;;5.58;99.33;102414.44;5063235;28;20024;-76
2022/01/24 12:07:50;;;;;;;30.65;8.73;;;;;;;5.56;99.41;102405.69;5072660;28;20103;-77
2022/01/24 12:10:35;;;;;;;30.38;8.00;;;;;;;5.54;99.39;102396.94;5050705;28;20024;-75
2022/01/24 12:13:14;;;;;;;29.67;8.45;;;;;;;5.55;99.71;102395.91;5076830;28;20449;-76
2022/01/24 12:15:42;;;;;;;31.80;9.85;;;;;;;5.55;99.70;102391.31;5057997;28;20033;-75
2022/01/24 12:18:09;;;;;;;26.90;8.18;;;;;;;5.57;99.75;102385.72;5078227;28;20558;-77
2022/01/24 12:20:34;;;;;;;28.83;7.70;;;;;;;5.61;99.83;102386.16;5071521;28;20791;-77
2022/01/24 12:23:27;;;;;;;22.35;8.95;;;;;;;5.60;99.53;102379.91;5069588;28;20044;-77
2022/01/24 12:26:08;;;;;;;28.50;9.32;;;;;;;5.60;99.76;102385.31;5070407;28;20020;-77
2022/01/24 12:28:43;;;;;;;22.75;8.18;;;;;;;5.62;100.00;102383.25;5056660;28;20036;-77
2022/01/24 12:31:35;;;;;;;27.40;9.27;;;;;;;5.65;99.88;102376.59;5075588;28;20111;-78
2022/01/24 12:34:10;;;;;;;23.53;8.10;;;;;;;5.68;99.98;102377.03;5073808;28;20561;-77
2022/01/24 12:36:49;;;;;;;29.85;10.25;;;;;;;5.72;100.00;102370.16;5055954;28;20474;-77
2022/01/24 12:39:22;;;;;;;21.50;7.78;;;;;;;5.73;99.92;102369.16;5080664;28;20424;-77
2022/01/24 12:41:57;;;;;;;23.33;7.35;;;;;;;5.76;99.91;102374.16;5053498;28;20033;-77
2022/01/24 12:47:07;;;;;;;20.05;6.63;;;;;;;5.83;99.96;102367.91;5062191;28;20098;-78
2022/01/24 12:49:32;;;;;;;20.05;5.82;;;;;;;5.89;99.97;102369.81;5063724;28;20020;-78
2022/01/24 12:52:08;;;;;;;18.20;5.15;;;;;;;5.93;100.00;102354.84;5053696;28;20031;-78
2022/01/24 12:54:36;;;;;;;25.52;6.35;;;;;;;5.96;99.95;102349.03;5060081;28;20047;-78
2022/01/24 12:57:05;;;;;;;16.90;6.05;;;;;;;6.02;99.64;102350.91;5075193;28;20031;-78
2022/01/24 12:59:30;;;;;;;24.50;6.22;;;;;;;6.04;99.86;102354.25;5052480;28;20516;-78
2022/01/24 13:01:58;;;;;;;27.25;7.57;;;;;;;6.06;99.63;102368.44;5070021;28;20032;-78
2022/01/24 13:04:34;;;;;;;21.25;5.63;;;;;;;6.08;99.75;102370.94;5072913;28;20033;-78
2022/01/24 13:07:00;;;;;;;28.13;5.93;;;;;;;6.07;99.55;102359.25;5049583;28;20024;-78
2022/01/24 13:09:25;;;;;;;22.83;6.35;;;;;;;6.05;99.55;102355.91;5050689;28;20024;-78